Time;durP1;ratioP1;P1;durP2;ratioP2;P2;SDS_P1;SDS_P2;PMS_P1;PMS_P2;Temp;Humidity;BMP_temperature;BMP_pressure;BME280_temperature;BME280_humidity;BME280_pressure;Samples;Min_cycle;Max_cycle;Signal;HPM_P1;HPM_P2
2023/06/02 00:01:01;;;;;;;4.35;0.90;;;10.30;99.90;;;;;;5071871;28;20140;-84
2023/06/02 00:03:31;;;;;;;8.63;0.90;;;10.40;99.90;;;;;;5072525;28;20071;-84
2023/06/02 00:05:59;;;;;;;7.10;1.15;;;10.30;99.90;;;;;;5091707;28;20055;-84
2023/06/02 00:08:28;;;;;;;4.55;0.82;;;10.20;99.90;;;;;;5092834;28;20048;-83
2023/06/02 00:10:54;;;;;;;7.63;1.10;;;10.40;99.90;;;;;;5091419;28;20098;-84
2023/06/02 00:13:20;;;;;;;5.60;1.00;;;10.30;99.90;;;;;;5074032;28;20044;-82
2023/06/02 00:15:47;;;;;;;6.97;1.05;;;10.30;99.90;;;;;;5091990;28;20051;-84
2023/06/02 00:18:13;;;;;;;5.53;1.10;;;10.20;99.90;;;;;;5092163;28;20048;-83
2023/06/02 00:20:39;;;;;;;4.18;0.77;;;10.20;99.90;;;;;;5093941;28;20160;-83
2023/06/02 00:23:08;;;;;;;7.43;0.77;;;10.20;99.90;;;;;;5077891;28;20144;-84
2023/06/02 00:25:35;;;;;;;5.95;1.20;;;10.10;99.90;;;;;;5078047;28;20177;-85
2023/06/02 00:28:01;;;;;;;8.60;1.10;;;10.10;99.90;;;;;;5075716;28;20059;-84
2023/06/02 00:30:27;;;;;;;8.70;1.38;;;10.10;99.90;;;;;;5075893;28;20041;-84
2023/06/02 00:32:53;;;;;;;7.80;0.90;;;10.10;99.90;;;;;;5077975;28;20090;-85
2023/06/02 00:35:19;;;;;;;10.05;1.05;;;10.10;99.90;;;;;;5095716;28;20053;-84
2023/06/02 00:37:46;;;;;;;8.43;1.30;;;10.10;99.90;;;;;;5095708;28;20135;-87
2023/06/02 00:40:12;;;;;;;7.90;0.70;;;10.10;99.90;;;;;;5079495;28;20076;-86
2023/06/02 00:42:38;;;;;;;5.78;0.77;;;10.10;99.90;;;;;;5075545;28;20450;-84
2023/06/02 00:45:04;;;;;;;4.47;1.10;;;10.10;99.90;;;;;;5057466;28;20056;-85
2023/06/02 00:47:30;;;;;;;6.55;0.95;;;10.00;99.90;;;;;;5076357;28;20037;-84
2023/06/02 00:49:57;;;;;;;5.18;0.85;;;10.10;99.90;;;;;;5085165;28;20044;-86
2023/06/02 00:52:23;;;;;;;6.75;0.98;;;10.00;99.90;;;;;;5057202;28;20067;-84
2023/06/02 00:54:49;;;;;;;6.85;0.95;;;10.00;99.90;;;;;;5075350;28;20952;-84
2023/06/02 00:57:16;;;;;;;6.03;0.70;;;10.00;99.90;;;;;;5075197;28;20052;-84
2023/06/02 00:59:43;;;;;;;5.68;0.90;;;9.90;99.90;;;;;;5075667;28;20113;-83
2023/06/02 01:02:10;;;;;;;3.50;0.85;;;10.00;99.90;;;;;;5075838;28;20047;-84
2023/06/02 01:04:40;;;;;;;7.07;0.65;;;10.00;99.90;;;;;;5075998;28;20480;-86
2023/06/02 01:07:07;;;;;;;8.45;1.17;;;10.00;99.90;;;;;;5074903;28;20182;-84
2023/06/02 01:09:34;;;;;;;7.68;0.80;;;9.90;99.90;;;;;;5074740;28;20055;-85
2023/06/02 01:12:01;;;;;;;6.78;0.80;;;10.60;99.90;;;;;;5078475;28;20048;-85
2023/06/02 01:14:27;;;;;;;9.00;1.25;;;10.30;99.90;;;;;;5095323;28;20040;-82
2023/06/02 01:16:53;;;;;;;5.85;0.80;;;10.00;99.90;;;;;;5095146;28;20059;-82
2023/06/02 01:19:26;;;;;;;5.03;0.70;;;10.10;99.90;;;;;;5076553;28;20040;-83
2023/06/02 01:22:00;;;;;;;7.40;1.10;;;10.10;99.90;;;;;;5093129;28;20416;-85
2023/06/02 01:24:39;;;;;;;8.35;1.20;;;10.90;99.90;;;;;;5094372;28;20044;-85
2023/06/02 01:27:12;;;;;;;9.35;0.98;;;10.30;99.90;;;;;;5093968;28;20527;-85
2023/06/02 01:29:38;;;;;;;7.07;0.70;;;10.10;99.90;;;;;;5094476;28;20036;-85
2023/06/02 01:32:21;;;;;;;7.88;0.85;;;10.00;99.90;;;;;;5091046;28;20044;-82
2023/06/02 01:34:58;;;;;;;3.25;1.00;;;10.10;99.90;;;;;;5093836;28;20039;-84
2023/06/02 01:37:25;;;;;;;6.20;0.85;;;10.10;99.90;;;;;;5076695;28;20045;-85
2023/06/02 01:39:53;;;;;;;9.25;1.13;;;10.30;99.90;;;;;;5056491;28;20378;-84
2023/06/02 01:42:21;;;;;;;13.25;1.55;;;10.10;99.90;;;;;;5072219;28;20051;-82
2023/06/02 01:44:48;;;;;;;6.95;0.80;;;10.10;99.90;;;;;;5075176;28;20043;-82
2023/06/02 01:47:14;;;;;;;4.28;0.90;;;10.10;99.90;;;;;;5094266;28;20485;-81
2023/06/02 01:49:39;;;;;;;2.22;0.57;;;10.10;99.90;;;;;;5094231;28;20050;-81
2023/06/02 01:52:05;;;;;;;8.57;0.90;;;10.20;99.90;;;;;;5094396;28;20054;-82
2023/06/02 01:54:31;;;;;;;4.13;0.68;;;10.10;99.90;;;;;;5092080;28;20086;-84
2023/06/02 01:56:57;;;;;;;6.72;1.27;;;10.10;99.90;;;;;;5092694;28;20048;-83
2023/06/02 01:59:22;;;;;;;8.55;1.90;;;10.20;99.90;;;;;;5093984;28;20397;-83
2023/06/02 02:01:48;;;;;;;7.88;0.98;;;10.10;99.90;;;;;;5093847;28;20090;-83
2023/06/02 02:04:14;;;;;;;8.25;0.95;;;10.60;99.90;;;;;;5092135;28;20048;-83
2023/06/02 02:06:41;;;;;;;11.13;1.23;;;10.10;99.90;;;;;;5093794;28;20048;-82
2023/06/02 02:09:07;;;;;;;8.23;2.45;;;10.30;99.90;;;;;;5089050;28;20045;-83
2023/06/02 02:11:34;;;;;;;3.05;0.70;;;10.10;99.90;;;;;;5089159;28;20040;-82
2023/06/02 02:14:04;;;;;;;7.10;0.82;;;10.00;99.90;;;;;;5093261;28;20036;-82
2023/06/02 02:16:30;;;;;;;9.65;1.17;;;10.10;99.90;;;;;;5075212;28;20052;-84
2023/06/02 02:18:56;;;;;;;7.22;0.90;;;10.10;99.90;;;;;;5093858;28;20032;-83
2023/06/02 02:21:22;;;;;;;6.30;0.75;;;10.60;99.90;;;;;;5075689;28;20059;-84
2023/06/02 02:23:48;;;;;;;7.18;1.35;;;10.40;99.90;;;;;;5093888;28;20408;-82
2023/06/02 02:26:13;;;;;;;6.20;1.83;;;9.90;99.90;;;;;;5080497;28;20466;-82
2023/06/02 02:28:39;;;;;;;7.18;0.77;;;10.20;99.90;;;;;;5073182;28;20036;-85
2023/06/02 02:31:04;;;;;;;7.43;0.90;;;10.10;99.90;;;;;;5055478;28;20048;-85
2023/06/02 02:33:30;;;;;;;12.80;1.92;;;10.10;99.90;;;;;;5073353;28;20075;-83
2023/06/02 02:35:56;;;;;;;8.25;1.27;;;9.70;99.90;;;;;;5056555;28;20059;-85
2023/06/02 02:38:22;;;;;;;4.50;1.02;;;10.20;99.90;;;;;;5085581;28;20040;-82
2023/06/02 02:40:48;;;;;;;3.25;0.70;;;10.20;99.90;;;;;;5093456;28;20051;-86
2023/06/02 02:43:15;;;;;;;3.17;0.70;;;10.40;99.90;;;;;;5075083;28;20044;-83
2023/06/02 02:45:41;;;;;;;5.57;1.05;;;10.50;99.90;;;;;;5074772;28;20047;-85
2023/06/02 02:48:07;;;;;;;5.97;0.60;;;10.70;99.90;;;;;;5073143;28;20398;-84
2023/06/02 02:50:33;;;;;;;12.45;1.05;;;11.10;99.90;;;;;;5093043;28;20044;-85
2023/06/02 02:52:59;;;;;;;9.88;1.25;;;10.50;99.90;;;;;;5082245;28;20123;-85
2023/06/02 02:55:25;;;;;;;12.75;2.00;;;10.60;99.90;;;;;;5072978;28;20044;-84
2023/06/02 02:57:51;;;;;;;5.63;1.00;;;10.20;99.90;;;;;;5073774;28;20051;-85
2023/06/02 03:00:17;;;;;;;7.80;1.10;;;10.40;99.90;;;;;;5072589;28;20056;-84
2023/06/02 03:02:43;;;;;;;8.18;0.90;;;10.30;99.90;;;;;;5054728;28;20079;-86
2023/06/02 03:05:10;;;;;;;8.80;1.25;;;10.30;99.90;;;;;;5055079;28;20389;-84
2023/06/02 03:07:39;;;;;;;5.10;0.75;;;10.20;99.90;;;;;;5073084;28;20051;-85
2023/06/02 03:10:06;;;;;;;8.05;0.90;;;10.60;99.90;;;;;;5073835;28;20043;-86
2023/06/02 03:12:32;;;;;;;12.07;1.00;;;10.40;99.90;;;;;;5092864;28;20040;-85
2023/06/02 03:14:57;;;;;;;8.43;0.80;;;10.30;99.90;;;;;;5093131;28;20032;-85
2023/06/02 03:17:23;;;;;;;16.92;1.88;;;10.40;99.90;;;;;;5092944;28;20044;-84
2023/06/02 03:19:49;;;;;;;7.00;1.20;;;10.20;99.90;;;;;;5090449;28;20051;-84
2023/06/02 03:22:15;;;;;;;17.85;1.85;;;10.80;99.90;;;;;;5091351;28;20461;-82
2023/06/02 03:24:40;;;;;;;4.95;0.90;;;10.40;99.90;;;;;;5092556;28;20040;-82
2023/06/02 03:27:13;;;;;;;12.63;1.50;;;10.40;99.90;;;;;;5091920;28;20085;-81
2023/06/02 03:29:39;;;;;;;12.48;1.52;;;10.40;99.90;;;;;;5073574;28;20481;-82
2023/06/02 03:32:09;;;;;;;6.30;0.88;;;11.00;99.90;;;;;;5054252;28;20498;-83
2023/06/02 03:34:36;;;;;;;6.43;1.20;;;10.60;99.90;;;;;;5072605;28;20040;-86
2023/06/02 03:37:02;;;;;;;7.68;1.00;;;10.60;99.90;;;;;;5072721;28;20135;-86
2023/06/02 03:39:28;;;;;;;8.88;1.30;;;10.50;99.90;;;;;;5072701;28;20490;-86
2023/06/02 03:41:53;;;;;;;5.55;0.88;;;10.70;99.90;;;;;;5079317;28;20068;-86
2023/06/02 03:44:20;;;;;;;8.40;1.00;;;10.50;99.90;;;;;;5092582;28;20048;-87
2023/06/02 03:46:45;;;;;;;9.20;1.00;;;10.50;99.90;;;;;;5089711;28;20067;-85
2023/06/02 03:49:11;;;;;;;6.43;1.65;;;10.50;99.90;;;;;;5072693;28;20400;-87
2023/06/02 03:51:36;;;;;;;6.93;1.00;;;10.60;99.90;;;;;;5079694;28;20047;-85
2023/06/02 03:54:02;;;;;;;6.43;0.95;;;10.60;99.90;;;;;;5092498;28;20040;-86
2023/06/02 03:56:28;;;;;;;11.60;1.70;;;10.60;99.90;;;;;;5095976;28;20040;-87
2023/06/02 03:58:53;;;;;;;3.88;0.80;;;10.60;99.90;;;;;;5078861;28;20044;-87
2023/06/02 04:01:20;;;;;;;11.93;1.58;;;10.70;99.90;;;;;;5095541;28;20103;-86
2023/06/02 04:03:46;;;;;;;12.55;1.90;;;10.70;99.90;;;;;;5095137;28;20052;-84
2023/06/02 04:06:12;;;;;;;3.63;0.95;;;11.00;99.90;;;;;;5078464;28;20101;-86
2023/06/02 04:08:39;;;;;;;8.57;1.40;;;10.80;99.90;;;;;;5096791;28;20055;-87
2023/06/02 04:11:04;;;;;;;15.13;2.97;;;11.30;99.90;;;;;;5096352;28;20054;-87
2023/06/02 04:13:30;;;;;;;7.97;0.90;;;10.80;99.90;;;;;;5076525;28;20028;-85
2023/06/02 04:15:56;;;;;;;6.63;1.15;;;10.60;99.90;;;;;;5096523;28;20047;-84
2023/06/02 04:18:22;;;;;;;14.20;1.83;;;10.80;99.90;;;;;;5095301;28;20407;-85
2023/06/02 04:20:48;;;;;;;14.18;1.90;;;10.90;99.90;;;;;;5096064;28;20123;-86
2023/06/02 04:23:14;;;;;;;7.03;1.20;;;10.80;99.90;;;;;;5096057;28;20079;-85
2023/06/02 04:25:40;;;;;;;6.18;1.65;;;10.90;99.90;;;;;;5082564;28;20405;-85
2023/06/02 04:28:07;;;;;;;12.95;1.60;;;10.90;99.90;;;;;;5040978;28;20040;-85
2023/06/02 04:30:36;;;;;;;8.10;1.55;;;10.80;99.90;;;;;;5076532;28;20489;-86
2023/06/02 04:33:03;;;;;;;2.70;0.77;;;10.90;99.90;;;;;;5075606;28;20044;-85
2023/06/02 04:35:28;;;;;;;14.07;1.77;;;11.00;99.90;;;;;;5081864;28;20051;-84
2023/06/02 04:37:54;;;;;;;8.13;1.52;;;11.00;99.90;;;;;;5087627;28;20036;-86
2023/06/02 04:40:19;;;;;;;8.73;1.45;;;11.00;99.90;;;;;;5057643;28;20119;-85
2023/06/02 04:42:45;;;;;;;14.05;1.80;;;11.00;99.90;;;;;;5075578;28;20044;-85
2023/06/02 04:45:11;;;;;;;6.70;1.20;;;11.10;99.90;;;;;;5076695;28;20044;-85
2023/06/02 04:47:38;;;;;;;12.70;1.42;;;11.10;99.90;;;;;;5076512;28;20161;-86
2023/06/02 04:50:11;;;;;;;11.95;2.13;;;11.20;99.90;;;;;;5057713;28;20060;-85
2023/06/02 04:52:41;;;;;;;15.50;1.60;;;11.20;99.90;;;;;;5075761;28;20374;-86
2023/06/02 04:55:11;;;;;;;17.40;2.47;;;11.20;99.90;;;;;;5076624;28;20053;-86
2023/06/02 04:57:37;;;;;;;8.93;1.50;;;11.20;99.90;;;;;;5057648;28;20041;-85
2023/06/02 05:00:04;;;;;;;10.38;1.17;;;11.40;99.90;;;;;;5092119;28;20044;-85
2023/06/02 05:02:30;;;;;;;11.48;2.08;;;11.30;99.90;;;;;;5095560;28;20055;-84
2023/06/02 05:04:56;;;;;;;10.20;1.45;;;11.40;99.90;;;;;;5095568;28;20226;-82
2023/06/02 05:07:22;;;;;;;8.15;1.10;;;11.40;99.90;;;;;;5093211;28;20048;-85
2023/06/02 05:09:48;;;;;;;9.73;1.42;;;11.30;99.90;;;;;;5094872;28;20036;-86
2023/06/02 05:12:16;;;;;;;9.43;1.50;;;11.50;99.90;;;;;;5095295;28;20052;-84
2023/06/02 05:14:42;;;;;;;8.15;1.58;;;11.50;99.90;;;;;;5094482;28;20484;-86
2023/06/02 05:17:08;;;;;;;11.63;1.45;;;11.60;99.90;;;;;;5089322;28;20428;-85
2023/06/02 05:19:34;;;;;;;12.32;1.55;;;11.60;99.90;;;;;;5056648;28;20048;-85
2023/06/02 05:22:02;;;;;;;10.18;1.70;;;11.70;99.90;;;;;;5075001;28;20457;-84
2023/06/02 05:24:28;;;;;;;8.75;1.98;;;11.70;99.90;;;;;;5075110;28;20120;-85
2023/06/02 05:26:54;;;;;;;12.55;1.83;;;11.80;99.90;;;;;;5074843;28;20584;-84
2023/06/02 05:29:20;;;;;;;13.77;2.20;;;11.80;99.90;;;;;;5076702;28;20127;-83
2023/06/02 05:31:45;;;;;;;15.10;2.53;;;11.80;99.90;;;;;;5056784;28;20041;-86
2023/06/02 05:34:11;;;;;;;11.32;1.88;;;12.00;99.90;;;;;;5056597;28;20044;-84
2023/06/02 05:36:37;;;;;;;16.95;2.28;;;12.00;99.90;;;;;;5074390;28;20045;-85
2023/06/02 05:39:02;;;;;;;18.98;1.92;;;12.10;99.90;;;;;;5075509;28;20119;-83
2023/06/02 05:41:28;;;;;;;16.52;2.58;;;12.10;99.90;;;;;;5076650;28;20109;-86
2023/06/02 05:43:55;;;;;;;10.65;1.77;;;12.20;99.90;;;;;;5094867;28;20041;-85
2023/06/02 05:46:22;;;;;;;16.77;1.70;;;13.10;99.90;;;;;;5057071;28;20052;-84
2023/06/02 05:48:48;;;;;;;10.85;2.50;;;12.40;99.90;;;;;;5076375;28;20386;-86
2023/06/02 05:51:13;;;;;;;12.38;1.60;;;12.50;99.90;;;;;;5074186;28;20247;-85
2023/06/02 05:53:39;;;;;;;14.25;1.75;;;12.40;99.90;;;;;;5061150;28;20125;-85
2023/06/02 05:56:05;;;;;;;10.63;1.75;;;12.40;99.90;;;;;;5094484;28;20170;-84
2023/06/02 05:58:31;;;;;;;12.25;1.83;;;12.40;99.90;;;;;;5094200;28;20039;-84
2023/06/02 06:00:57;;;;;;;13.68;1.45;;;12.50;99.90;;;;;;5073900;28;20139;-84
2023/06/02 06:03:23;;;;;;;10.88;1.98;;;12.30;99.90;;;;;;5075688;28;20135;-85
2023/06/02 06:05:49;;;;;;;10.65;1.50;;;12.80;99.90;;;;;;5094081;28;20040;-84
2023/06/02 06:08:14;;;;;;;13.52;1.52;;;12.60;99.90;;;;;;5089453;28;20525;-85
2023/06/02 06:10:42;;;;;;;13.52;1.83;;;12.60;99.90;;;;;;5074781;28;20374;-85
2023/06/02 06:13:08;;;;;;;16.77;2.88;;;12.70;99.90;;;;;;5073672;28;20119;-86
2023/06/02 06:15:34;;;;;;;17.58;2.17;;;12.80;99.90;;;;;;5073824;28;20040;-85
2023/06/02 06:17:59;;;;;;;12.30;1.75;;;13.00;99.90;;;;;;5077277;28;20046;-87
2023/06/02 06:20:25;;;;;;;17.85;1.58;;;13.10;99.90;;;;;;5075035;28;20076;-87
2023/06/02 06:22:51;;;;;;;9.82;1.50;;;13.00;99.90;;;;;;5057954;28;20040;-86
2023/06/02 06:25:17;;;;;;;12.15;2.30;;;13.10;99.90;;;;;;5056118;28;20086;-88
2023/06/02 06:27:43;;;;;;;9.07;1.35;;;13.20;99.90;;;;;;5082847;28;20115;-85
2023/06/02 06:30:09;;;;;;;10.95;1.58;;;13.30;99.90;;;;;;5071952;28;20073;-89
2023/06/02 06:32:35;;;;;;;10.95;1.40;;;14.20;99.90;;;;;;5069899;28;20059;-87
2023/06/02 06:35:01;;;;;;;17.20;4.07;;;13.40;99.90;;;;;;5073728;28;20507;-86
2023/06/02 06:37:29;;;;;;;9.65;1.38;;;13.50;99.90;;;;;;5055400;28;20048;-88
2023/06/02 06:39:55;;;;;;;10.43;0.98;;;13.50;99.90;;;;;;5074837;28;20081;-88
2023/06/02 06:42:24;;;;;;;11.45;1.50;;;13.50;99.90;;;;;;5055252;28;20083;-84
2023/06/02 06:44:50;;;;;;;9.95;1.75;;;13.60;99.90;;;;;;5073194;28;20056;-86
2023/06/02 06:47:17;;;;;;;7.80;1.17;;;13.70;99.90;;;;;;5085262;28;20039;-88
2023/06/02 06:49:43;;;;;;;11.52;1.45;;;13.70;99.90;;;;;;5073237;28;20494;-84
2023/06/02 06:52:08;;;;;;;10.82;1.10;;;13.90;99.90;;;;;;5092759;28;20040;-86
2023/06/02 06:54:34;;;;;;;16.25;1.00;;;14.00;99.90;;;;;;5084587;28;20044;-85
2023/06/02 06:57:00;;;;;;;8.50;1.35;;;14.10;99.90;;;;;;5075081;28;20416;-84
2023/06/02 06:59:25;;;;;;;9.73;1.20;;;14.30;99.90;;;;;;5093099;28;20043;-85
2023/06/02 07:01:51;;;;;;;11.82;1.20;;;14.60;99.90;;;;;;5090723;28;20479;-86
2023/06/02 07:04:17;;;;;;;7.30;1.13;;;14.90;99.90;;;;;;5093085;28;20048;-85
2023/06/02 07:06:44;;;;;;;5.90;1.00;;;15.10;99.90;;;;;;5092878;28;20047;-89
2023/06/02 07:09:11;;;;;;;9.27;1.00;;;15.30;99.90;;;;;;5093005;28;20097;-89
2023/06/02 07:11:37;;;;;;;6.15;0.90;;;15.40;99.90;;;;;;5072199;28;20040;-86
2023/06/02 07:14:04;;;;;;;4.68;0.85;;;15.30;99.90;;;;;;5092440;28;20412;-85
2023/06/02 07:16:30;;;;;;;7.13;1.10;;;15.20;99.90;;;;;;5092855;28;20484;-85
2023/06/02 07:18:56;;;;;;;7.80;0.80;;;15.10;99.90;;;;;;5091338;28;20043;-86
2023/06/02 07:21:22;;;;;;;4.43;0.80;;;15.20;99.90;;;;;;5091925;28;20119;-86
2023/06/02 07:23:48;;;;;;;5.65;0.68;;;15.40;99.90;;;;;;5073873;28;20051;-87
2023/06/02 07:26:13;;;;;;;4.53;0.68;;;15.50;99.90;;;;;;5073220;28;20405;-87
2023/06/02 07:28:39;;;;;;;5.10;1.38;;;15.70;99.90;;;;;;5055794;28;20048;-83
2023/06/02 07:31:05;;;;;;;6.80;0.80;;;15.80;99.90;;;;;;5056651;28;20131;-85
2023/06/02 07:33:31;;;;;;;8.40;0.70;;;16.00;99.90;;;;;;5076597;28;20658;-83
2023/06/02 07:35:56;;;;;;;3.90;0.70;;;16.00;99.90;;;;;;5074659;28;20415;-85
2023/06/02 07:38:23;;;;;;;5.25;0.70;;;16.10;99.90;;;;;;5055977;28;20053;-85
2023/06/02 07:40:48;;;;;;;3.03;0.50;;;16.10;99.90;;;;;;5056787;28;20049;-81
2023/06/02 07:43:14;;;;;;;4.88;0.60;;;16.20;99.90;;;;;;5040618;28;20067;-81
2023/06/02 07:45:40;;;;;;;3.22;0.93;;;16.50;99.90;;;;;;5088181;28;20054;-83
2023/06/02 07:48:05;;;;;;;2.33;0.50;;;16.40;99.90;;;;;;5092424;28;20490;-83
2023/06/02 07:50:31;;;;;;;4.10;0.60;;;16.60;99.90;;;;;;5092783;28;20053;-81
2023/06/02 07:52:57;;;;;;;2.85;0.63;;;16.70;99.90;;;;;;5075370;28;20044;-83
2023/06/02 07:55:24;;;;;;;3.63;0.60;;;16.60;99.90;;;;;;5091639;28;20532;-82
2023/06/02 07:57:50;;;;;;;4.47;1.10;;;16.60;99.90;;;;;;5092380;28;20093;-87
2023/06/02 08:00:18;;;;;;;1.50;0.80;;;16.80;99.90;;;;;;5093199;28;20541;-84
2023/06/02 08:02:46;;;;;;;5.47;0.90;;;16.90;99.90;;;;;;5093324;28;20055;-85
2023/06/02 08:05:16;;;;;;;6.57;0.60;;;17.00;99.90;;;;;;5092854;28;20403;-87
2023/06/02 08:07:41;;;;;;;5.22;0.63;;;17.10;99.90;;;;;;5078792;28;20040;-88
2023/06/02 08:10:08;;;;;;;4.93;1.60;;;17.20;99.90;;;;;;5095344;28;20040;-83
2023/06/02 08:12:34;;;;;;;3.20;0.50;;;17.20;99.90;;;;;;5092868;28;20055;-83
2023/06/02 08:15:00;;;;;;;4.95;0.73;;;17.30;99.90;;;;;;5091559;28;20388;-86
2023/06/02 08:17:29;;;;;;;3.45;0.60;;;17.30;99.90;;;;;;5089123;28;20051;-87
2023/06/02 08:20:05;;;;;;;2.22;0.50;;;17.20;99.90;;;;;;5093304;28;20055;-85
2023/06/02 08:22:31;;;;;;;6.30;0.70;;;17.20;99.90;;;;;;5092361;28;20044;-83
2023/06/02 08:24:57;;;;;;;5.65;0.98;;;17.10;99.90;;;;;;5092636;28;20455;-84
2023/06/02 08:27:23;;;;;;;1.38;0.55;;;17.20;99.90;;;;;;5090829;28;20123;-81
2023/06/02 08:29:50;;;;;;;4.82;0.50;;;17.30;99.90;;;;;;5073250;28;20442;-82
2023/06/02 08:32:19;;;;;;;7.72;1.35;;;17.40;99.90;;;;;;5092463;28;20460;-81
2023/06/02 08:34:50;;;;;;;3.00;0.40;;;17.20;99.90;;;;;;5074200;28;20519;-82
2023/06/02 08:37:19;;;;;;;2.80;0.50;;;17.30;99.90;;;;;;5073222;28;20048;-82
2023/06/02 08:39:47;;;;;;;1.40;0.60;;;17.50;99.90;;;;;;5071342;28;20040;-82
2023/06/02 08:42:14;;;;;;;1.70;0.45;;;17.70;99.90;;;;;;5078266;28;20056;-82
2023/06/02 08:44:41;;;;;;;3.03;0.77;;;17.60;99.90;;;;;;5057758;28;20043;-81
2023/06/02 08:47:11;;;;;;;2.55;0.55;;;17.60;99.90;;;;;;5057794;28;20091;-82
2023/06/02 08:49:47;;;;;;;5.35;0.70;;;17.70;99.90;;;;;;5091719;28;20048;-81
2023/06/02 08:52:27;;;;;;;4.57;0.93;;;17.90;99.90;;;;;;5077433;28;20135;-81
2023/06/02 08:54:55;;;;;;;3.85;0.40;;;18.00;99.90;;;;;;5095858;28;20087;-82
2023/06/02 08:57:22;;;;;;;5.68;0.77;;;17.90;99.90;;;;;;5095682;28;20044;-79
2023/06/02 08:59:49;;;;;;;2.92;0.50;;;17.80;99.90;;;;;;5094251;28;20052;-80
2023/06/02 09:02:16;;;;;;;1.88;0.43;;;17.90;99.90;;;;;;5095394;28;20519;-79
2023/06/02 09:04:42;;;;;;;5.70;0.70;;;18.20;99.90;;;;;;5095366;28;20067;-78
2023/06/02 09:07:15;;;;;;;2.78;0.52;;;18.10;99.90;;;;;;5095752;28;20404;-80
2023/06/02 09:09:49;;;;;;;1.65;0.60;;;18.00;99.90;;;;;;5095404;28;20499;-82
2023/06/02 09:12:16;;;;;;;4.72;0.60;;;18.20;99.90;;;;;;5095226;28;20527;-82
2023/06/02 09:14:42;;;;;;;3.03;0.57;;;18.30;99.90;;;;;;5095597;28;20108;-82
2023/06/02 09:17:28;;;;;;;3.25;0.50;;;18.40;99.90;;;;;;5094828;28;20040;-81
2023/06/02 09:20:06;;;;;;;1.83;0.50;;;18.20;99.90;;;;;;5095507;28;20062;-83
2023/06/02 09:22:32;;;;;;;2.45;0.60;;;18.30;99.90;;;;;;5076929;28;20067;-81
2023/06/02 09:24:58;;;;;;;3.03;0.57;;;18.20;99.90;;;;;;5075314;28;20937;-81
2023/06/02 09:27:25;;;;;;;1.88;0.50;;;18.20;99.90;;;;;;5056754;28;20063;-81
2023/06/02 09:30:02;;;;;;;3.28;0.60;;;18.30;99.90;;;;;;5074621;28;20112;-82
2023/06/02 09:32:28;;;;;;;2.97;0.40;;;18.40;99.90;;;;;;5074891;28;20040;-80
2023/06/02 09:34:54;;;;;;;4.70;0.63;;;18.40;99.50;;;;;;5076475;28;20092;-82
2023/06/02 09:37:22;;;;;;;4.50;0.60;;;18.60;99.50;;;;;;5095078;28;20044;-81
2023/06/02 09:39:57;;;;;;;1.75;0.30;;;18.60;99.70;;;;;;5094740;28;20048;-82
2023/06/02 09:42:23;;;;;;;1.08;0.50;;;18.80;99.90;;;;;;5094779;28;20036;-82
2023/06/02 09:45:09;;;;;;;3.20;0.52;;;18.90;98.40;;;;;;5094488;28;20044;-81
2023/06/02 09:47:40;;;;;;;1.48;0.40;;;19.00;98.00;;;;;;5076358;28;20178;-81
2023/06/02 09:50:07;;;;;;;2.75;0.40;;;19.00;96.30;;;;;;5076470;28;20105;-80
2023/06/02 09:52:33;;;;;;;3.45;0.47;;;18.80;94.90;;;;;;5093115;28;20121;-82
2023/06/02 09:54:59;;;;;;;4.50;0.50;;;18.90;96.00;;;;;;5089944;28;20490;-81
2023/06/02 09:57:25;;;;;;;3.17;0.60;;;18.90;95.80;;;;;;5060586;28;20048;-80
2023/06/02 09:59:51;;;;;;;0.93;0.28;;;18.90;97.40;;;;;;5058956;28;20041;-84
2023/06/02 10:02:17;;;;;;;1.27;0.50;;;19.10;94.80;;;;;;5094640;28;20514;-82
2023/06/02 10:04:45;;;;;;;1.80;0.40;;;19.40;95.70;;;;;;5076111;28;20127;-81
2023/06/02 10:07:32;;;;;;;1.70;0.60;;;19.70;93.50;;;;;;5077207;28;20449;-80
2023/06/02 10:10:08;;;;;;;4.00;0.52;;;19.40;94.50;;;;;;5094288;28;20055;-81
2023/06/02 10:12:37;;;;;;;1.48;0.60;;;19.30;96.40;;;;;;5075947;28;20537;-81
2023/06/02 10:15:21;;;;;;;2.05;0.47;;;19.60;98.00;;;;;;5094241;28;20133;-81
2023/06/02 10:18:21;;;;;;;1.88;0.40;;;19.80;97.30;;;;;;5094036;28;20040;-82
2023/06/02 10:21:09;;;;;;;3.17;0.50;;;20.00;97.60;;;;;;5090408;28;20399;-81
2023/06/02 10:23:53;;;;;;;2.15;0.40;;;19.90;96.90;;;;;;5093880;28;20047;-82
2023/06/02 10:26:40;;;;;;;3.08;0.60;;;19.60;95.80;;;;;;5074396;28;20047;-83
2023/06/02 10:29:08;;;;;;;1.88;0.50;;;19.80;97.10;;;;;;5070529;28;20043;-84
2023/06/02 10:31:34;;;;;;;3.22;0.70;;;19.60;97.90;;;;;;5073502;28;20044;-84
2023/06/02 10:34:01;;;;;;;3.38;0.70;;;19.50;97.50;;;;;;5055883;28;20059;-85
2023/06/02 10:37:05;;;;;;;3.42;0.85;;;19.30;99.90;;;;;;5086489;28;20046;-82
2023/06/02 10:39:40;;;;;;;2.35;0.80;;;19.40;99.90;;;;;;5075001;28;20132;-83
2023/06/02 10:42:16;;;;;;;4.93;0.90;;;19.60;99.90;;;;;;5067714;28;20044;-82
2023/06/02 10:44:42;;;;;;;3.33;0.82;;;19.80;99.90;;;;;;5074800;28;20147;-82
2023/06/02 10:47:20;;;;;;;3.45;0.70;;;19.80;99.90;;;;;;5057688;28;20032;-84
2023/06/02 10:49:55;;;;;;;2.33;0.60;;;20.00;99.90;;;;;;5074652;28;20083;-84
2023/06/02 10:52:24;;;;;;;4.80;0.80;;;20.10;99.90;;;;;;5093548;28;20048;-85
2023/06/02 10:55:08;;;;;;;2.33;1.00;;;19.90;99.90;;;;;;5073783;28;20058;-90
2023/06/02 10:57:53;;;;;;;3.78;1.17;;;20.20;99.90;;;;;;5075668;28;20458;-89
2023/06/02 11:00:44;;;;;;;3.70;0.82;;;19.60;99.90;;;;;;5092599;28;20087;-84
2023/06/02 11:03:16;;;;;;;2.22;0.70;;;20.00;99.90;;;;;;5092484;28;20059;-86
2023/06/02 11:05:43;;;;;;;3.95;1.13;;;20.10;99.90;;;;;;5091341;28;20032;-87
2023/06/02 11:08:14;;;;;;;4.82;0.70;;;20.30;99.90;;;;;;5075147;28;20094;-84
2023/06/02 11:10:56;;;;;;;8.20;1.30;;;20.20;99.90;;;;;;5092906;28;20119;-87
2023/06/02 11:13:23;;;;;;;2.50;0.80;;;20.00;99.90;;;;;;5057596;28;20056;-85
2023/06/02 11:16:00;;;;;;;3.58;1.00;;;20.00;99.90;;;;;;5084882;28;20036;-85
2023/06/02 11:18:27;;;;;;;3.30;1.45;;;20.20;99.90;;;;;;5092265;28;20070;-88
2023/06/02 11:20:55;;;;;;;2.63;0.93;;;20.50;99.90;;;;;;5073961;28;20047;-86
2023/06/02 11:23:21;;;;;;;3.28;0.70;;;20.50;99.90;;;;;;5092868;28;20505;-85
2023/06/02 11:25:48;;;;;;;4.20;1.10;;;20.70;99.90;;;;;;5074994;28;20052;-85
2023/06/02 11:28:20;;;;;;;6.43;1.33;;;;;;;;;;5091912;28;20044;-85
2023/06/02 11:30:46;;;;;;;3.65;1.20;;;;;;;;;;5091794;28;20095;-87
2023/06/02 11:33:12;;;;;;;3.70;0.65;;;;;;;;;;5074676;28;20081;-86
2023/06/02 11:35:40;;;;;;;5.32;0.63;;;;;;;;;;5091814;28;20036;-83
2023/06/02 11:38:08;;;;;;;5.90;1.15;;;;;;;;;;5091717;28;20071;-85
2023/06/02 11:40:35;;;;;;;7.97;1.15;;;;;;;;;;5073016;28;20431;-87
2023/06/02 11:43:02;;;;;;;4.93;1.13;;;;;;;;;;5072762;28;20465;-85
2023/06/02 11:45:28;;;;;;;8.27;0.98;;;;;;;;;;5072672;28;20037;-85
2023/06/02 11:48:08;;;;;;;4.20;0.90;;;;;;;;;;5083661;28;20048;-85
2023/06/02 11:50:35;;;;;;;5.50;1.00;;;;;;;;;;5088525;28;20063;-86
2023/06/02 11:53:01;;;;;;;4.28;1.00;;;;;;;;;;5093311;28;20048;-81
2023/06/02 11:55:33;;;;;;;4.13;0.95;;;20.40;99.90;;;;;;5084340;28;20511;-85
2023/06/02 11:58:23;;;;;;;3.22;0.90;;;20.60;99.90;;;;;;5072940;28;20052;-83
2023/06/02 12:00:51;;;;;;;3.13;1.10;;;20.30;99.90;;;;;;5072859;28;20136;-88
2023/06/02 12:03:17;;;;;;;6.22;1.40;;;20.50;99.90;;;;;;5073196;28;20527;-84
2023/06/02 12:05:45;;;;;;;4.15;1.00;;;20.40;99.90;;;;;;5073160;28;20044;-86
2023/06/02 12:08:20;;;;;;;8.30;1.20;;;20.50;99.90;;;;;;5073507;28;20062;-84
2023/06/02 12:10:47;;;;;;;5.13;1.33;;;20.90;99.90;;;;;;5070397;28;20048;-87
2023/06/02 12:13:33;;;;;;;5.50;1.15;;;20.50;99.90;;;;;;5093468;28;20047;-85
2023/06/02 12:16:19;;;;;;;7.35;1.27;;;20.50;99.90;;;;;;5094895;28;20125;-85
2023/06/02 12:18:45;;;;;;;7.13;1.30;;;20.30;99.90;;;;;;5097350;28;20115;-84
2023/06/02 12:21:27;;;;;;;3.97;1.48;;;20.50;99.90;;;;;;5094110;28;20548;-83
2023/06/02 12:23:58;;;;;;;2.53;1.05;;;20.00;99.90;;;;;;5085284;28;20040;-84
2023/06/02 12:26:24;;;;;;;6.43;1.55;;;19.80;99.90;;;;;;5097688;28;20044;-85
2023/06/02 12:28:50;;;;;;;4.00;1.10;;;19.70;99.90;;;;;;5099197;28;20552;-82
2023/06/02 12:31:19;;;;;;;3.05;0.90;;;19.50;99.90;;;;;;5076560;28;20119;-81
2023/06/02 12:37:26;;;;;;;3.20;1.13;;;20.10;99.90;;;;;;5077309;28;21746;-82
2023/06/02 12:39:51;;;;;;;3.28;1.13;;;19.90;99.90;;;;;;5058919;28;20033;-81
2023/06/02 12:42:20;;;;;;;5.22;1.30;;;19.70;99.90;;;;;;5080098;28;20473;-84
2023/06/02 12:44:48;;;;;;;4.72;1.40;;;19.60;99.90;;;;;;5079043;28;20052;-83
2023/06/02 12:47:15;;;;;;;7.90;1.42;;;19.90;99.90;;;;;;5082471;28;20046;-83
2023/06/02 12:49:40;;;;;;;7.60;1.45;;;20.20;99.90;;;;;;5080491;28;20033;-85
2023/06/02 12:52:06;;;;;;;8.90;1.67;;;20.50;99.90;;;;;;5078471;28;20044;-84
2023/06/02 12:54:32;;;;;;;10.48;1.20;;;21.00;99.90;;;;;;5092239;28;20048;-83
2023/06/02 12:56:57;;;;;;;6.97;1.55;;;20.90;99.90;;;;;;5077870;28;20040;-83